sensor_id;sensor_type;location;lat;lon;timestamp;temperature;humidity
39983;DHT22;25670;44.782;10.356;2022-09-09T00:02:15;19.00;99.90
39983;DHT22;25670;44.782;10.356;2022-09-09T00:10:37;18.60;99.90
39983;DHT22;25670;44.782;10.356;2022-09-09T00:13:19;18.80;99.90
39983;DHT22;25670;44.782;10.356;2022-09-09T00:18:36;18.70;99.90
39983;DHT22;25670;44.782;10.356;2022-09-09T00:21:13;18.70;99.90
39983;DHT22;25670;44.782;10.356;2022-09-09T00:23:51;18.80;99.90
39983;DHT22;25670;44.782;10.356;2022-09-09T00:34:13;18.50;99.90
39983;DHT22;25670;44.782;10.356;2022-09-09T00:36:41;18.60;99.90
39983;DHT22;25670;44.782;10.356;2022-09-09T00:39:37;18.50;99.90
39983;DHT22;25670;44.782;10.356;2022-09-09T00:42:25;18.60;99.90
39983;DHT22;25670;44.782;10.356;2022-09-09T00:45:01;18.40;99.90
39983;DHT22;25670;44.782;10.356;2022-09-09T00:47:45;18.30;99.90
39983;DHT22;25670;44.782;10.356;2022-09-09T00:58:25;18.30;99.90
39983;DHT22;25670;44.782;10.356;2022-09-09T01:06:31;18.00;99.90
39983;DHT22;25670;44.782;10.356;2022-09-09T01:09:13;17.80;99.90
39983;DHT22;25670;44.782;10.356;2022-09-09T01:15:10;18.00;99.90
39983;DHT22;25670;44.782;10.356;2022-09-09T01:18:06;18.40;99.90
39983;DHT22;25670;44.782;10.356;2022-09-09T01:21:00;18.10;99.90
39983;DHT22;25670;44.782;10.356;2022-09-09T01:28:48;17.70;99.90
39983;DHT22;25670;44.782;10.356;2022-09-09T01:31:27;17.80;99.90
39983;DHT22;25670;44.782;10.356;2022-09-09T01:33:55;17.70;99.90
39983;DHT22;25670;44.782;10.356;2022-09-09T01:38:53;14.90;99.90
39983;DHT22;25670;44.782;10.356;2022-09-09T01:41:20;17.60;99.90
39983;DHT22;25670;44.782;10.356;2022-09-09T01:43:58;17.70;99.90
39983;DHT22;25670;44.782;10.356;2022-09-09T01:46:28;17.40;99.90
39983;DHT22;25670;44.782;10.356;2022-09-09T01:48:55;17.40;99.90
39983;DHT22;25670;44.782;10.356;2022-09-09T01:51:22;17.40;99.90
39983;DHT22;25670;44.782;10.356;2022-09-09T01:53:50;17.20;99.90
39983;DHT22;25670;44.782;10.356;2022-09-09T01:56:49;16.80;99.90
39983;DHT22;25670;44.782;10.356;2022-09-09T02:02:11;16.70;99.90
39983;DHT22;25670;44.782;10.356;2022-09-09T02:04:48;16.90;99.90
39983;DHT22;25670;44.782;10.356;2022-09-09T02:13:22;16.80;99.90
39983;DHT22;25670;44.782;10.356;2022-09-09T02:18:50;16.70;99.90
39983;DHT22;25670;44.782;10.356;2022-09-09T02:21:22;16.60;99.90
39983;DHT22;25670;44.782;10.356;2022-09-09T02:23:50;16.50;99.90
39983;DHT22;25670;44.782;10.356;2022-09-09T02:26:19;16.50;99.90
39983;DHT22;25670;44.782;10.356;2022-09-09T02:28:55;16.50;99.90
39983;DHT22;25670;44.782;10.356;2022-09-09T02:31:23;16.50;99.90
39983;DHT22;25670;44.782;10.356;2022-09-09T02:33:59;16.30;99.90
39983;DHT22;25670;44.782;10.356;2022-09-09T02:36:30;16.50;99.90
39983;DHT22;25670;44.782;10.356;2022-09-09T02:39:00;16.50;99.90
39983;DHT22;25670;44.782;10.356;2022-09-09T02:41:33;16.40;99.90
39983;DHT22;25670;44.782;10.356;2022-09-09T02:44:00;16.40;99.90
39983;DHT22;25670;44.782;10.356;2022-09-09T02:49:52;16.30;99.90
39983;DHT22;25670;44.782;10.356;2022-09-09T02:52:26;16.00;99.90
39983;DHT22;25670;44.782;10.356;2022-09-09T02:54:57;16.40;99.90
39983;DHT22;25670;44.782;10.356;2022-09-09T02:57:27;16.20;99.90
39983;DHT22;25670;44.782;10.356;2022-09-09T02:59:57;16.30;99.90
39983;DHT22;25670;44.782;10.356;2022-09-09T03:02:24;16.40;99.90
39983;DHT22;25670;44.782;10.356;2022-09-09T03:04:56;16.30;99.90
39983;DHT22;25670;44.782;10.356;2022-09-09T03:07:22;16.20;99.90
39983;DHT22;25670;44.782;10.356;2022-09-09T03:09:51;16.70;99.90
39983;DHT22;25670;44.782;10.356;2022-09-09T03:12:23;16.20;99.90
39983;DHT22;25670;44.782;10.356;2022-09-09T03:14:49;16.30;99.90
39983;DHT22;25670;44.782;10.356;2022-09-09T03:19:49;16.30;99.90
39983;DHT22;25670;44.782;10.356;2022-09-09T03:24:46;16.20;99.90
39983;DHT22;25670;44.782;10.356;2022-09-09T03:27:13;16.30;99.90
39983;DHT22;25670;44.782;10.356;2022-09-09T03:29:40;16.30;99.90
39983;DHT22;25670;44.782;10.356;2022-09-09T03:32:13;16.30;99.90
39983;DHT22;25670;44.782;10.356;2022-09-09T03:34:39;16.30;99.90
39983;DHT22;25670;44.782;10.356;2022-09-09T03:39:35;16.50;99.90
39983;DHT22;25670;44.782;10.356;2022-09-09T03:42:02;16.40;99.90
39983;DHT22;25670;44.782;10.356;2022-09-09T03:44:32;16.30;99.90
39983;DHT22;25670;44.782;10.356;2022-09-09T03:47:00;16.30;99.90
39983;DHT22;25670;44.782;10.356;2022-09-09T03:49:27;16.40;99.90
39983;DHT22;25670;44.782;10.356;2022-09-09T03:51:56;16.50;99.90
39983;DHT22;25670;44.782;10.356;2022-09-09T03:54:25;14.30;99.90
39983;DHT22;25670;44.782;10.356;2022-09-09T03:56:51;16.20;99.90
39983;DHT22;25670;44.782;10.356;2022-09-09T04:01:44;16.00;99.90
39983;DHT22;25670;44.782;10.356;2022-09-09T04:04:11;16.10;99.90
39983;DHT22;25670;44.782;10.356;2022-09-09T04:06:38;16.00;99.90
39983;DHT22;25670;44.782;10.356;2022-09-09T04:11:32;16.20;99.90
39983;DHT22;25670;44.782;10.356;2022-09-09T04:16:28;15.80;99.90
39983;DHT22;25670;44.782;10.356;2022-09-09T04:18:55;16.10;99.90
39983;DHT22;25670;44.782;10.356;2022-09-09T04:21:22;16.00;99.90
39983;DHT22;25670;44.782;10.356;2022-09-09T04:23:49;16.00;99.90
39983;DHT22;25670;44.782;10.356;2022-09-09T04:26:16;16.00;99.90
39983;DHT22;25670;44.782;10.356;2022-09-09T04:28:44;16.00;99.90
39983;DHT22;25670;44.782;10.356;2022-09-09T04:31:24;15.80;99.90
39983;DHT22;25670;44.782;10.356;2022-09-09T04:33:55;15.80;99.90
39983;DHT22;25670;44.782;10.356;2022-09-09T04:36:22;15.80;99.90
39983;DHT22;25670;44.782;10.356;2022-09-09T04:38:50;15.90;99.90
39983;DHT22;25670;44.782;10.356;2022-09-09T04:41:17;15.80;99.90
39983;DHT22;25670;44.782;10.356;2022-09-09T04:43:46;15.70;99.90
39983;DHT22;25670;44.782;10.356;2022-09-09T04:46:14;15.90;99.90
39983;DHT22;25670;44.782;10.356;2022-09-09T04:48:43;15.70;99.90
39983;DHT22;25670;44.782;10.356;2022-09-09T04:51:13;15.70;99.90
39983;DHT22;25670;44.782;10.356;2022-09-09T04:53:39;15.80;99.90
39983;DHT22;25670;44.782;10.356;2022-09-09T04:56:07;15.60;99.90
39983;DHT22;25670;44.782;10.356;2022-09-09T04:58:41;15.80;99.90
39983;DHT22;25670;44.782;10.356;2022-09-09T05:01:17;15.70;99.90
39983;DHT22;25670;44.782;10.356;2022-09-09T05:03:45;15.80;99.90
39983;DHT22;25670;44.782;10.356;2022-09-09T05:06:20;15.80;99.90
39983;DHT22;25670;44.782;10.356;2022-09-09T05:08:49;15.90;99.90
39983;DHT22;25670;44.782;10.356;2022-09-09T05:11:23;16.00;99.90
39983;DHT22;25670;44.782;10.356;2022-09-09T05:13:52;16.00;99.90
39983;DHT22;25670;44.782;10.356;2022-09-09T05:16:20;16.30;99.90
39983;DHT22;25670;44.782;10.356;2022-09-09T05:18:47;16.30;99.90
39983;DHT22;25670;44.782;10.356;2022-09-09T05:21:15;16.40;99.90
39983;DHT22;25670;44.782;10.356;2022-09-09T05:23:41;16.70;99.90
39983;DHT22;25670;44.782;10.356;2022-09-09T05:26:12;16.40;99.90
39983;DHT22;25670;44.782;10.356;2022-09-09T05:28:39;15.80;99.90
39983;DHT22;25670;44.782;10.356;2022-09-09T05:31:07;16.80;99.90
39983;DHT22;25670;44.782;10.356;2022-09-09T05:33:35;16.50;99.90
39983;DHT22;25670;44.782;10.356;2022-09-09T05:36:07;16.60;99.90
39983;DHT22;25670;44.782;10.356;2022-09-09T05:38:35;16.60;99.90
39983;DHT22;25670;44.782;10.356;2022-09-09T05:41:02;16.60;99.90
39983;DHT22;25670;44.782;10.356;2022-09-09T05:43:30;16.70;99.90
39983;DHT22;25670;44.782;10.356;2022-09-09T05:48:31;17.10;99.90
39983;DHT22;25670;44.782;10.356;2022-09-09T05:50:59;17.50;99.90
39983;DHT22;25670;44.782;10.356;2022-09-09T05:53:26;17.30;99.90
39983;DHT22;25670;44.782;10.356;2022-09-09T05:56:08;17.40;99.90
39983;DHT22;25670;44.782;10.356;2022-09-09T05:58:37;17.50;99.90
39983;DHT22;25670;44.782;10.356;2022-09-09T06:01:09;17.60;99.90
39983;DHT22;25670;44.782;10.356;2022-09-09T06:03:42;17.60;99.90
39983;DHT22;25670;44.782;10.356;2022-09-09T06:06:12;17.80;99.90
39983;DHT22;25670;44.782;10.356;2022-09-09T06:08:40;17.80;99.90
39983;DHT22;25670;44.782;10.356;2022-09-09T06:11:10;18.00;99.90
39983;DHT22;25670;44.782;10.356;2022-09-09T06:13:38;18.20;99.90
39983;DHT22;25670;44.782;10.356;2022-09-09T06:16:12;18.30;99.90
39983;DHT22;25670;44.782;10.356;2022-09-09T06:18:40;18.40;99.90
39983;DHT22;25670;44.782;10.356;2022-09-09T06:21:16;18.60;99.90
39983;DHT22;25670;44.782;10.356;2022-09-09T06:23:43;18.70;99.90
39983;DHT22;25670;44.782;10.356;2022-09-09T06:26:15;18.90;99.90
39983;DHT22;25670;44.782;10.356;2022-09-09T06:28:45;19.00;99.90
39983;DHT22;25670;44.782;10.356;2022-09-09T06:31:13;19.00;99.90
39983;DHT22;25670;44.782;10.356;2022-09-09T06:33:41;19.10;99.90
39983;DHT22;25670;44.782;10.356;2022-09-09T06:36:19;19.20;99.90
39983;DHT22;25670;44.782;10.356;2022-09-09T06:38:45;19.20;99.90
39983;DHT22;25670;44.782;10.356;2022-09-09T06:41:15;19.30;99.90
39983;DHT22;25670;44.782;10.356;2022-09-09T06:43:45;19.30;99.90
39983;DHT22;25670;44.782;10.356;2022-09-09T06:46:23;19.30;99.90
39983;DHT22;25670;44.782;10.356;2022-09-09T06:48:50;19.40;99.90
39983;DHT22;25670;44.782;10.356;2022-09-09T06:51:18;19.60;99.90
39983;DHT22;25670;44.782;10.356;2022-09-09T06:53:46;19.60;99.90
39983;DHT22;25670;44.782;10.356;2022-09-09T06:58:45;19.90;99.90
39983;DHT22;25670;44.782;10.356;2022-09-09T07:01:18;20.00;99.90
39983;DHT22;25670;44.782;10.356;2022-09-09T07:03:48;20.10;99.90
39983;DHT22;25670;44.782;10.356;2022-09-09T07:06:16;20.20;99.90
39983;DHT22;25670;44.782;10.356;2022-09-09T07:08:49;20.30;99.90
39983;DHT22;25670;44.782;10.356;2022-09-09T07:11:16;20.30;99.90
39983;DHT22;25670;44.782;10.356;2022-09-09T07:13:42;20.30;99.90
39983;DHT22;25670;44.782;10.356;2022-09-09T07:16:11;20.30;99.90
39983;DHT22;25670;44.782;10.356;2022-09-09T07:18:37;20.30;99.90
39983;DHT22;25670;44.782;10.356;2022-09-09T07:21:04;20.30;99.90
39983;DHT22;25670;44.782;10.356;2022-09-09T07:23:30;20.30;99.90
39983;DHT22;25670;44.782;10.356;2022-09-09T07:25:57;20.40;99.90
39983;DHT22;25670;44.782;10.356;2022-09-09T07:28:25;20.50;99.90
39983;DHT22;25670;44.782;10.356;2022-09-09T07:31:02;20.60;99.90
39983;DHT22;25670;44.782;10.356;2022-09-09T07:33:31;20.70;99.90
39983;DHT22;25670;44.782;10.356;2022-09-09T07:36:09;20.60;99.90
39983;DHT22;25670;44.782;10.356;2022-09-09T07:38:39;20.60;99.90
39983;DHT22;25670;44.782;10.356;2022-09-09T07:41:08;20.70;99.90
39983;DHT22;25670;44.782;10.356;2022-09-09T07:43:39;20.90;99.90
39983;DHT22;25670;44.782;10.356;2022-09-09T07:46:06;20.90;99.90
39983;DHT22;25670;44.782;10.356;2022-09-09T07:48:32;21.00;99.90
39983;DHT22;25670;44.782;10.356;2022-09-09T07:51:08;21.00;99.90
39983;DHT22;25670;44.782;10.356;2022-09-09T07:53:35;21.10;99.90
39983;DHT22;25670;44.782;10.356;2022-09-09T07:56:08;21.30;99.90
39983;DHT22;25670;44.782;10.356;2022-09-09T07:58:36;21.50;99.90
39983;DHT22;25670;44.782;10.356;2022-09-09T08:01:11;21.40;99.90
39983;DHT22;25670;44.782;10.356;2022-09-09T08:03:38;21.40;99.90
39983;DHT22;25670;44.782;10.356;2022-09-09T08:06:07;21.40;99.90
39983;DHT22;25670;44.782;10.356;2022-09-09T08:08:35;21.40;99.90
39983;DHT22;25670;44.782;10.356;2022-09-09T08:13:35;21.70;99.90
39983;DHT22;25670;44.782;10.356;2022-09-09T08:16:09;21.90;99.90
39983;DHT22;25670;44.782;10.356;2022-09-09T08:18:36;21.90;99.90
39983;DHT22;25670;44.782;10.356;2022-09-09T08:21:21;21.90;99.90
39983;DHT22;25670;44.782;10.356;2022-09-09T08:23:47;21.90;99.90
39983;DHT22;25670;44.782;10.356;2022-09-09T08:26:17;22.00;99.90
39983;DHT22;25670;44.782;10.356;2022-09-09T08:28:45;21.90;99.90
39983;DHT22;25670;44.782;10.356;2022-09-09T08:31:15;21.80;99.90
39983;DHT22;25670;44.782;10.356;2022-09-09T08:33:43;21.70;99.90
39983;DHT22;25670;44.782;10.356;2022-09-09T08:36:14;21.90;99.90
39983;DHT22;25670;44.782;10.356;2022-09-09T08:38:42;22.20;99.90
39983;DHT22;25670;44.782;10.356;2022-09-09T08:43:48;22.20;99.90
39983;DHT22;25670;44.782;10.356;2022-09-09T08:46:39;22.30;99.90
39983;DHT22;25670;44.782;10.356;2022-09-09T08:52:39;22.20;99.90
39983;DHT22;25670;44.782;10.356;2022-09-09T08:57:52;22.30;99.90
39983;DHT22;25670;44.782;10.356;2022-09-09T09:00:19;22.30;99.90
39983;DHT22;25670;44.782;10.356;2022-09-09T09:06:15;22.20;99.90
39983;DHT22;25670;44.782;10.356;2022-09-09T09:08:50;22.30;99.90
39983;DHT22;25670;44.782;10.356;2022-09-09T09:11:19;22.30;99.90
39983;DHT22;25670;44.782;10.356;2022-09-09T09:16:23;22.70;99.90
39983;DHT22;25670;44.782;10.356;2022-09-09T09:18:53;22.80;99.90
39983;DHT22;25670;44.782;10.356;2022-09-09T09:21:34;23.00;99.90
39983;DHT22;25670;44.782;10.356;2022-09-09T09:24:07;23.20;99.90
39983;DHT22;25670;44.782;10.356;2022-09-09T09:26:43;23.40;99.90
39983;DHT22;25670;44.782;10.356;2022-09-09T09:29:12;23.60;99.90
39983;DHT22;25670;44.782;10.356;2022-09-09T09:31:53;23.90;99.90
39983;DHT22;25670;44.782;10.356;2022-09-09T09:34:24;24.00;99.90
39983;DHT22;25670;44.782;10.356;2022-09-09T09:36:59;24.20;99.90
39983;DHT22;25670;44.782;10.356;2022-09-09T09:39:33;24.20;99.90
39983;DHT22;25670;44.782;10.356;2022-09-09T09:42:23;24.20;99.90
39983;DHT22;25670;44.782;10.356;2022-09-09T09:44:54;24.40;99.90
39983;DHT22;25670;44.782;10.356;2022-09-09T09:47:22;24.50;99.90
39983;DHT22;25670;44.782;10.356;2022-09-09T09:50:18;24.60;99.90
39983;DHT22;25670;44.782;10.356;2022-09-09T09:52:55;24.50;99.90
39983;DHT22;25670;44.782;10.356;2022-09-09T09:55:22;24.70;99.90
39983;DHT22;25670;44.782;10.356;2022-09-09T09:57:51;24.70;99.90
39983;DHT22;25670;44.782;10.356;2022-09-09T10:00:22;24.90;99.90
39983;DHT22;25670;44.782;10.356;2022-09-09T10:02:59;25.10;99.90
39983;DHT22;25670;44.782;10.356;2022-09-09T10:05:30;25.20;99.90
39983;DHT22;25670;44.782;10.356;2022-09-09T10:10:41;25.30;99.90
39983;DHT22;25670;44.782;10.356;2022-09-09T10:19:05;25.70;99.90
39983;DHT22;25670;44.782;10.356;2022-09-09T10:24:32;25.90;99.90
39983;DHT22;25670;44.782;10.356;2022-09-09T10:27:22;25.80;99.90
39983;DHT22;25670;44.782;10.356;2022-09-09T10:30:11;25.70;99.90
39983;DHT22;25670;44.782;10.356;2022-09-09T10:35:35;26.00;99.90
39983;DHT22;25670;44.782;10.356;2022-09-09T10:46:17;26.20;99.90
39983;DHT22;25670;44.782;10.356;2022-09-09T10:54:31;26.00;99.90
39983;DHT22;25670;44.782;10.356;2022-09-09T10:57:33;26.00;99.90
39983;DHT22;25670;44.782;10.356;2022-09-09T11:00:06;26.20;99.90
39983;DHT22;25670;44.782;10.356;2022-09-09T11:02:34;26.00;99.90
39983;DHT22;25670;44.782;10.356;2022-09-09T11:05:05;26.20;99.90
39983;DHT22;25670;44.782;10.356;2022-09-09T11:10:27;26.30;99.90
39983;DHT22;25670;44.782;10.356;2022-09-09T11:12:59;26.40;99.90
39983;DHT22;25670;44.782;10.356;2022-09-09T11:15:36;26.60;99.90
39983;DHT22;25670;44.782;10.356;2022-09-09T11:18:17;26.70;99.90
39983;DHT22;25670;44.782;10.356;2022-09-09T11:20:47;26.70;99.90
39983;DHT22;25670;44.782;10.356;2022-09-09T11:23:20;26.60;99.90
39983;DHT22;25670;44.782;10.356;2022-09-09T11:25:55;26.60;99.90
39983;DHT22;25670;44.782;10.356;2022-09-09T11:28:58;26.70;99.90
39983;DHT22;25670;44.782;10.356;2022-09-09T11:31:42;26.80;99.90
39983;DHT22;25670;44.782;10.356;2022-09-09T11:36:56;27.30;99.90
39983;DHT22;25670;44.782;10.356;2022-09-09T11:39:39;27.00;99.90
39983;DHT22;25670;44.782;10.356;2022-09-09T11:44:41;27.60;99.90
39983;DHT22;25670;44.782;10.356;2022-09-09T11:47:26;27.40;99.90
39983;DHT22;25670;44.782;10.356;2022-09-09T11:52:42;27.50;99.90
39983;DHT22;25670;44.782;10.356;2022-09-09T11:55:25;27.60;99.90
39983;DHT22;25670;44.782;10.356;2022-09-09T11:58:15;27.80;99.90
39983;DHT22;25670;44.782;10.356;2022-09-09T12:00:47;27.80;99.90
39983;DHT22;25670;44.782;10.356;2022-09-09T12:08:43;27.80;99.90
39983;DHT22;25670;44.782;10.356;2022-09-09T12:11:11;28.00;99.90
39983;DHT22;25670;44.782;10.356;2022-09-09T12:13:37;28.00;99.90
39983;DHT22;25670;44.782;10.356;2022-09-09T12:16:04;28.00;99.90
39983;DHT22;25670;44.782;10.356;2022-09-09T12:18:38;28.10;99.90
39983;DHT22;25670;44.782;10.356;2022-09-09T12:24:10;28.30;99.90
39983;DHT22;25670;44.782;10.356;2022-09-09T12:32:11;28.80;99.90
39983;DHT22;25670;44.782;10.356;2022-09-09T12:34:50;28.80;99.90
39983;DHT22;25670;44.782;10.356;2022-09-09T12:37:35;28.70;99.90
39983;DHT22;25670;44.782;10.356;2022-09-09T12:40:19;28.80;99.90
39983;DHT22;25670;44.782;10.356;2022-09-09T12:42:45;29.10;99.90
39983;DHT22;25670;44.782;10.356;2022-09-09T12:45:17;29.30;99.90
39983;DHT22;25670;44.782;10.356;2022-09-09T12:47:58;29.00;99.90
39983;DHT22;25670;44.782;10.356;2022-09-09T12:50:30;28.70;99.90
39983;DHT22;25670;44.782;10.356;2022-09-09T12:53:33;28.70;99.90
39983;DHT22;25670;44.782;10.356;2022-09-09T12:56:08;28.60;99.90
39983;DHT22;25670;44.782;10.356;2022-09-09T12:58:37;28.70;99.90
39983;DHT22;25670;44.782;10.356;2022-09-09T13:01:05;28.40;99.90
39983;DHT22;25670;44.782;10.356;2022-09-09T13:03:33;28.20;99.90
39983;DHT22;25670;44.782;10.356;2022-09-09T13:06:12;28.00;99.90
39983;DHT22;25670;44.782;10.356;2022-09-09T13:08:40;27.60;99.90
39983;DHT22;25670;44.782;10.356;2022-09-09T13:11:12;27.30;99.90
39983;DHT22;25670;44.782;10.356;2022-09-09T13:13:41;27.20;99.90
39983;DHT22;25670;44.782;10.356;2022-09-09T13:16:28;27.10;99.90
39983;DHT22;25670;44.782;10.356;2022-09-09T13:19:08;27.20;99.90
39983;DHT22;25670;44.782;10.356;2022-09-09T13:21:38;27.60;99.90
39983;DHT22;25670;44.782;10.356;2022-09-09T13:24:33;28.40;99.90
39983;DHT22;25670;44.782;10.356;2022-09-09T13:27:19;29.30;99.90
39983;DHT22;25670;44.782;10.356;2022-09-09T13:29:54;30.10;99.90
39983;DHT22;25670;44.782;10.356;2022-09-09T13:32:25;31.60;99.90
39983;DHT22;25670;44.782;10.356;2022-09-09T13:35:00;33.60;99.90
39983;DHT22;25670;44.782;10.356;2022-09-09T13:37:38;35.20;99.90
39983;DHT22;25670;44.782;10.356;2022-09-09T13:40:17;36.30;99.90
39983;DHT22;25670;44.782;10.356;2022-09-09T13:42:44;37.10;98.90
39983;DHT22;25670;44.782;10.356;2022-09-09T13:45:19;37.90;98.40
39983;DHT22;25670;44.782;10.356;2022-09-09T13:47:46;38.50;96.10
39983;DHT22;25670;44.782;10.356;2022-09-09T13:50:21;37.60;95.50
39983;DHT22;25670;44.782;10.356;2022-09-09T13:52:49;36.50;95.50
39983;DHT22;25670;44.782;10.356;2022-09-09T13:55:18;35.70;97.50
39983;DHT22;25670;44.782;10.356;2022-09-09T13:57:59;36.50;97.10
39983;DHT22;25670;44.782;10.356;2022-09-09T14:00:31;37.80;95.90
39983;DHT22;25670;44.782;10.356;2022-09-09T14:02:57;38.50;93.60
39983;DHT22;25670;44.782;10.356;2022-09-09T14:05:24;39.20;92.60
39983;DHT22;25670;44.782;10.356;2022-09-09T14:07:51;38.90;92.30
39983;DHT22;25670;44.782;10.356;2022-09-09T14:10:17;38.90;93.10
39983;DHT22;25670;44.782;10.356;2022-09-09T14:12:43;38.50;92.20
39983;DHT22;25670;44.782;10.356;2022-09-09T14:15:11;39.30;91.40
39983;DHT22;25670;44.782;10.356;2022-09-09T14:17:37;39.50;91.10
39983;DHT22;25670;44.782;10.356;2022-09-09T14:20:06;39.40;90.70
39983;DHT22;25670;44.782;10.356;2022-09-09T14:22:33;40.10;92.20
39983;DHT22;25670;44.782;10.356;2022-09-09T14:25:00;38.50;90.60
39983;DHT22;25670;44.782;10.356;2022-09-09T14:27:26;39.20;90.20
39983;DHT22;25670;44.782;10.356;2022-09-09T14:29:53;39.30;90.90
39983;DHT22;25670;44.782;10.356;2022-09-09T14:32:19;39.50;89.30
39983;DHT22;25670;44.782;10.356;2022-09-09T14:34:45;40.00;90.40
39983;DHT22;25670;44.782;10.356;2022-09-09T14:37:13;40.70;88.40
39983;DHT22;25670;44.782;10.356;2022-09-09T14:39:39;40.20;89.30
39983;DHT22;25670;44.782;10.356;2022-09-09T14:42:05;41.00;87.30
39983;DHT22;25670;44.782;10.356;2022-09-09T14:44:32;40.90;86.60
39983;DHT22;25670;44.782;10.356;2022-09-09T14:46:59;39.90;87.50
39983;DHT22;25670;44.782;10.356;2022-09-09T14:49:25;37.90;90.40
39983;DHT22;25670;44.782;10.356;2022-09-09T14:51:52;36.80;91.20
39983;DHT22;25670;44.782;10.356;2022-09-09T14:54:18;36.10;91.60
39983;DHT22;25670;44.782;10.356;2022-09-09T14:56:44;35.60;91.40
39983;DHT22;25670;44.782;10.356;2022-09-09T14:59:11;35.10;92.00
39983;DHT22;25670;44.782;10.356;2022-09-09T15:01:37;34.40;92.90
39983;DHT22;25670;44.782;10.356;2022-09-09T15:04:05;33.80;93.50
39983;DHT22;25670;44.782;10.356;2022-09-09T15:06:34;33.50;94.30
39983;DHT22;25670;44.782;10.356;2022-09-09T15:09:02;33.00;94.70
39983;DHT22;25670;44.782;10.356;2022-09-09T15:11:31;33.10;94.80
39983;DHT22;25670;44.782;10.356;2022-09-09T15:13:59;32.90;95.20
39983;DHT22;25670;44.782;10.356;2022-09-09T15:16:27;32.60;95.90
39983;DHT22;25670;44.782;10.356;2022-09-09T15:18:57;32.50;95.70
39983;DHT22;25670;44.782;10.356;2022-09-09T15:21:26;32.00;96.40
39983;DHT22;25670;44.782;10.356;2022-09-09T15:23:53;31.60;96.80
39983;DHT22;25670;44.782;10.356;2022-09-09T15:26:19;31.20;97.20
39983;DHT22;25670;44.782;10.356;2022-09-09T15:28:47;31.30;97.60
39983;DHT22;25670;44.782;10.356;2022-09-09T15:31:16;31.50;97.70
39983;DHT22;25670;44.782;10.356;2022-09-09T15:33:54;31.50;97.90
39983;DHT22;25670;44.782;10.356;2022-09-09T15:36:31;31.10;98.40
39983;DHT22;25670;44.782;10.356;2022-09-09T15:39:01;31.70;98.40
39983;DHT22;25670;44.782;10.356;2022-09-09T15:41:29;32.20;97.90
39983;DHT22;25670;44.782;10.356;2022-09-09T15:43:57;32.70;97.30
39983;DHT22;25670;44.782;10.356;2022-09-09T15:46:25;33.10;97.10
39983;DHT22;25670;44.782;10.356;2022-09-09T15:48:58;33.30;96.80
39983;DHT22;25670;44.782;10.356;2022-09-09T15:51:28;33.30;96.10
39983;DHT22;25670;44.782;10.356;2022-09-09T15:53:56;33.40;97.10
39983;DHT22;25670;44.782;10.356;2022-09-09T15:56:23;33.80;95.90
39983;DHT22;25670;44.782;10.356;2022-09-09T15:58:50;33.90;96.10
39983;DHT22;25670;44.782;10.356;2022-09-09T16:01:16;33.80;95.80
39983;DHT22;25670;44.782;10.356;2022-09-09T16:03:45;33.90;95.70
39983;DHT22;25670;44.782;10.356;2022-09-09T16:06:18;34.10;95.80
39983;DHT22;25670;44.782;10.356;2022-09-09T16:08:45;34.00;95.60
39983;DHT22;25670;44.782;10.356;2022-09-09T16:11:32;34.20;95.80
39983;DHT22;25670;44.782;10.356;2022-09-09T16:13:59;34.90;95.60
39983;DHT22;25670;44.782;10.356;2022-09-09T16:16:27;35.20;95.60
39983;DHT22;25670;44.782;10.356;2022-09-09T16:19:05;35.20;96.20
39983;DHT22;25670;44.782;10.356;2022-09-09T16:21:35;35.00;96.60
39983;DHT22;25670;44.782;10.356;2022-09-09T16:24:04;34.40;97.10
39983;DHT22;25670;44.782;10.356;2022-09-09T16:26:33;34.30;97.50
39983;DHT22;25670;44.782;10.356;2022-09-09T16:29:00;34.40;97.70
39983;DHT22;25670;44.782;10.356;2022-09-09T16:31:28;34.00;98.10
39983;DHT22;25670;44.782;10.356;2022-09-09T16:33:55;33.40;98.30
39983;DHT22;25670;44.782;10.356;2022-09-09T16:36:26;33.70;98.80
39983;DHT22;25670;44.782;10.356;2022-09-09T16:38:54;34.00;98.70
39983;DHT22;25670;44.782;10.356;2022-09-09T16:41:21;34.30;98.40
39983;DHT22;25670;44.782;10.356;2022-09-09T16:44:02;34.10;98.50
39983;DHT22;25670;44.782;10.356;2022-09-09T16:46:30;34.10;98.70
39983;DHT22;25670;44.782;10.356;2022-09-09T16:48:58;34.20;98.30
39983;DHT22;25670;44.782;10.356;2022-09-09T16:51:29;33.90;98.80
39983;DHT22;25670;44.782;10.356;2022-09-09T16:53:58;34.00;98.40
39983;DHT22;25670;44.782;10.356;2022-09-09T16:56:26;33.90;98.30
39983;DHT22;25670;44.782;10.356;2022-09-09T16:58:55;33.50;98.40
39983;DHT22;25670;44.782;10.356;2022-09-09T17:01:27;33.60;98.60
39983;DHT22;25670;44.782;10.356;2022-09-09T17:03:55;33.40;98.60
39983;DHT22;25670;44.782;10.356;2022-09-09T17:06:22;33.10;99.00
39983;DHT22;25670;44.782;10.356;2022-09-09T17:08:57;32.50;99.30
39983;DHT22;25670;44.782;10.356;2022-09-09T17:11:24;32.40;99.80
39983;DHT22;25670;44.782;10.356;2022-09-09T17:13:52;32.30;99.70
39983;DHT22;25670;44.782;10.356;2022-09-09T17:16:19;32.30;99.90
39983;DHT22;25670;44.782;10.356;2022-09-09T17:18:48;30.00;99.90
39983;DHT22;25670;44.782;10.356;2022-09-09T17:21:17;31.50;99.90
39983;DHT22;25670;44.782;10.356;2022-09-09T17:23:45;31.20;99.90
39983;DHT22;25670;44.782;10.356;2022-09-09T17:26:14;30.60;99.90
39983;DHT22;25670;44.782;10.356;2022-09-09T17:28:41;30.40;99.90
39983;DHT22;25670;44.782;10.356;2022-09-09T17:31:10;30.00;99.90
39983;DHT22;25670;44.782;10.356;2022-09-09T17:33:38;29.20;99.90
39983;DHT22;25670;44.782;10.356;2022-09-09T17:36:09;28.80;99.90
39983;DHT22;25670;44.782;10.356;2022-09-09T17:38:35;28.10;99.90
39983;DHT22;25670;44.782;10.356;2022-09-09T17:41:08;27.30;99.90
39983;DHT22;25670;44.782;10.356;2022-09-09T17:43:35;26.80;99.90
39983;DHT22;25670;44.782;10.356;2022-09-09T17:48:36;26.00;99.90
39983;DHT22;25670;44.782;10.356;2022-09-09T17:51:11;25.80;99.90
39983;DHT22;25670;44.782;10.356;2022-09-09T17:53:48;25.40;99.90
39983;DHT22;25670;44.782;10.356;2022-09-09T17:56:18;25.20;99.90
39983;DHT22;25670;44.782;10.356;2022-09-09T17:58:46;25.00;99.90
39983;DHT22;25670;44.782;10.356;2022-09-09T18:01:16;24.60;99.90
39983;DHT22;25670;44.782;10.356;2022-09-09T18:03:43;24.70;99.90
39983;DHT22;25670;44.782;10.356;2022-09-09T18:06:12;24.50;99.90
39983;DHT22;25670;44.782;10.356;2022-09-09T18:08:44;24.40;99.90
39983;DHT22;25670;44.782;10.356;2022-09-09T18:11:12;24.20;99.90